createdAt,value
2019-05-10T15:47:04.509Z,11.90
2019-05-10T15:49:38.287Z,11.78
2019-05-10T15:52:17.529Z,15.78
2019-05-10T15:54:47.168Z,14.45
2019-05-10T15:57:21.680Z,18.35
2019-05-10T15:59:59.014Z,13.30
2019-05-10T16:02:30.617Z,18.25
2019-05-10T16:05:03.856Z,17.90
2019-05-10T16:07:36.060Z,16.60
2019-05-10T16:10:09.456Z,19.77
2019-05-10T16:12:43.096Z,17.27
2019-05-10T16:15:20.194Z,16.32
2019-05-10T16:17:53.641Z,19.80
2019-05-10T16:20:25.204Z,19.70
2019-05-10T16:23:02.759Z,21.35
2019-05-10T16:25:41.557Z,16.93
2019-05-10T16:28:07.047Z,21.25
2019-05-10T16:30:40.042Z,22.48
2019-05-10T16:33:15.618Z,22.58
2019-05-10T16:35:49.532Z,23.30
2019-05-10T16:38:23.316Z,23.52
2019-05-10T16:40:58.863Z,23.30
2019-05-10T16:53:11.925Z,18.87
2019-05-10T16:55:45.460Z,25.30
2019-05-10T16:58:28.243Z,20.82
2019-05-10T17:01:05.755Z,26.15
2019-05-10T17:03:39.749Z,22.22
2019-05-10T17:06:23.790Z,22.50
2019-05-10T17:08:56.732Z,24.02
2019-05-10T17:11:30.753Z,24.85
2019-05-10T17:14:03.722Z,26.17
2019-05-10T17:16:49.590Z,26.90
2019-05-10T17:19:40.467Z,24.87
2019-05-10T17:22:29.049Z,24.35
2019-05-10T17:25:09.328Z,25.17
2019-05-10T17:27:42.467Z,21.97
2019-05-10T17:30:27.895Z,22.02
2019-05-10T17:33:04.064Z,25.08
2019-05-10T17:35:36.692Z,21.40
2019-05-10T17:38:19.233Z,23.22
2019-05-10T17:40:58.098Z,24.77
2019-05-10T17:43:31.103Z,24.23
2019-05-10T17:46:18.658Z,21.73
2019-05-10T17:48:51.602Z,21.37
2019-05-10T17:51:31.181Z,23.77
2019-05-10T17:54:04.089Z,20.68
2019-05-10T17:56:38.832Z,23.40
2019-05-10T17:59:12.435Z,21.50
2019-05-10T18:01:45.375Z,24.25
2019-05-10T18:04:24.908Z,19.82
2019-05-10T18:06:57.154Z,20.00
2019-05-10T18:09:32.228Z,22.30
2019-05-10T18:12:05.020Z,22.93
2019-05-10T18:14:50.306Z,20.70
2019-05-10T18:17:20.803Z,22.27
2019-05-10T18:19:56.645Z,22.00
2019-05-10T18:22:27.439Z,23.02
2019-05-10T18:25:00.504Z,24.67
2019-05-10T18:27:33.562Z,24.98
2019-05-10T18:30:14.630Z,25.70
2019-05-10T18:32:47.554Z,27.25
2019-05-10T18:35:30.586Z,25.05
2019-05-10T18:38:03.358Z,28.45
2019-05-10T18:40:36.061Z,27.48
2019-05-10T18:43:08.420Z,26.37
2019-05-10T18:45:43.996Z,25.50
2019-05-10T18:48:23.903Z,22.35
2019-05-10T18:50:56.140Z,24.72
2019-05-10T18:53:28.799Z,24.23
2019-05-10T18:56:01.844Z,26.87
2019-05-10T18:58:34.355Z,26.23
2019-05-10T19:01:15.193Z,25.05
2019-05-10T19:03:47.985Z,27.37
2019-05-10T19:06:24.083Z,26.02
2019-05-10T19:08:57.251Z,26.65
2019-05-10T19:11:38.876Z,25.65
2019-05-10T19:14:10.296Z,27.58
2019-05-10T19:16:50.135Z,26.97
2019-05-10T19:19:23.666Z,25.55
2019-05-10T19:21:56.815Z,26.48
2019-05-10T19:24:30.560Z,25.75
2019-05-10T19:27:12.945Z,25.32
2019-05-10T19:29:53.907Z,22.75
2019-05-10T19:32:29.732Z,25.75
2019-05-10T19:35:02.159Z,25.20
2019-05-10T19:37:34.840Z,24.15
2019-05-10T19:40:08.432Z,25.00
2019-05-10T19:42:42.925Z,21.82
2019-05-10T19:45:19.227Z,24.63
2019-05-10T19:47:49.954Z,19.85
2019-05-10T19:50:30.851Z,24.90
2019-05-10T19:52:58.308Z,20.12
2019-05-10T19:55:32.800Z,23.60
2019-05-10T19:58:05.742Z,23.73
2019-05-10T20:00:38.316Z,22.10
2019-05-10T20:03:11.038Z,24.43
2019-05-10T20:05:43.638Z,20.70
2019-05-10T20:08:16.234Z,23.32
2019-05-10T20:10:48.768Z,19.62
2019-05-10T20:13:21.691Z,22.10
2019-05-10T20:15:54.821Z,21.27
2019-05-10T20:18:29.059Z,21.85
2019-05-10T20:21:01.990Z,22.75
2019-05-10T20:23:35.233Z,20.30
2019-05-10T20:26:10.780Z,22.32
2019-05-10T20:28:53.811Z,18.95
2019-05-10T20:31:26.106Z,22.00
2019-05-10T20:33:58.799Z,19.02
2019-05-10T20:36:30.813Z,23.75
2019-05-10T20:39:03.439Z,20.65
2019-05-10T20:41:36.801Z,19.77
2019-05-10T20:44:09.002Z,22.98
2019-05-10T20:46:41.693Z,18.82
2019-05-10T20:49:20.802Z,21.50
2019-05-10T20:51:52.917Z,19.45
2019-05-10T20:54:25.726Z,22.17
2019-05-10T20:57:02.631Z,20.02
2019-05-10T20:59:35.793Z,22.48
2019-05-10T21:02:08.836Z,23.95
2019-05-10T21:04:45.020Z,19.55
2019-05-10T21:07:17.867Z,24.10
2019-05-10T21:09:50.955Z,21.80
2019-05-10T21:12:24.924Z,25.62
2019-05-10T21:15:00.645Z,28.25
2019-05-10T21:17:34.557Z,24.95
2019-05-10T21:20:09.937Z,25.97
2019-05-10T21:22:42.557Z,23.52
2019-05-10T21:25:14.753Z,26.07
2019-05-10T21:27:47.465Z,25.00
2019-05-10T21:30:23.285Z,28.15
2019-05-10T21:32:56.010Z,26.80
2019-05-10T21:35:28.441Z,27.77
2019-05-10T21:38:04.049Z,29.85
2019-05-10T21:40:42.654Z,27.65
2019-05-10T21:43:24.937Z,28.75
2019-05-10T21:46:04.875Z,22.65
2019-05-10T21:48:37.745Z,27.70
2019-05-10T21:51:16.698Z,23.07
2019-05-10T21:53:49.329Z,26.75
2019-05-10T21:56:23.161Z,23.50
2019-05-10T21:59:06.071Z,25.37
2019-05-10T22:01:38.497Z,23.57
2019-05-10T22:04:11.359Z,23.07
2019-05-10T22:06:51.132Z,26.55
2019-05-10T22:09:23.682Z,22.93
2019-05-10T22:11:59.430Z,25.43
2019-05-10T22:14:30.773Z,21.37
2019-05-10T22:17:03.593Z,26.57
2019-05-10T22:19:35.744Z,23.98
2019-05-10T22:22:09.009Z,22.93
2019-05-10T22:24:47.935Z,28.87
2019-05-10T22:27:24.134Z,22.35
2019-05-10T22:30:03.889Z,28.95
2019-05-10T22:32:36.512Z,24.45
2019-05-10T22:35:15.859Z,31.97
2019-05-10T22:37:56.532Z,30.43
2019-05-10T22:40:44.757Z,31.57
2019-05-10T22:43:17.532Z,25.15
2019-05-10T22:45:50.412Z,26.45
2019-05-10T22:48:23.184Z,36.45
2019-05-10T22:50:59.385Z,26.40
2019-05-10T22:53:35.768Z,36.98
2019-05-10T22:56:26.076Z,28.67
2019-05-10T22:59:04.712Z,34.20
2019-05-10T23:04:27.526Z,31.77
2019-05-10T23:07:00.193Z,27.80
2019-05-10T23:09:45.709Z,30.92
2019-05-10T23:12:18.260Z,27.52
2019-05-10T23:14:51.245Z,25.57
2019-05-10T23:17:24.158Z,30.30
2019-05-10T23:19:58.170Z,26.35
2019-05-10T23:22:31.417Z,29.20
2019-05-10T23:25:04.864Z,24.12
2019-05-10T23:27:37.311Z,27.75
2019-05-10T23:30:10.202Z,27.37
2019-05-10T23:32:43.183Z,26.97
2019-05-10T23:35:15.931Z,28.95
2019-05-10T23:37:48.506Z,27.32
2019-05-10T23:40:21.330Z,31.20
2019-05-10T23:42:53.812Z,32.25
2019-05-10T23:45:26.660Z,31.12
2019-05-10T23:48:03.320Z,25.23
2019-05-10T23:50:42.927Z,24.60
2019-05-10T23:53:22.993Z,28.40
2019-05-10T23:55:55.484Z,27.80
2019-05-10T23:58:28.640Z,28.65
